Time;durP1;ratioP1;P1;durP2;ratioP2;P2;SDS_P1;SDS_P2;PMS_P1;PMS_P2;Temp;Humidity;BMP_temperature;BMP_pressure;BME280_temperature;BME280_humidity;BME280_pressure;Samples;Min_cycle;Max_cycle;Signal;HPM_P1;HPM_P2
2022/11/23 00:00:28;;;;;;;8.93;6.05;;;7.40;99.90;;;;;;5054043;28;20071;-66
2022/11/23 00:02:57;;;;;;;10.25;6.63;;;7.60;99.90;;;;;;5036040;28;20106;-66
2022/11/23 00:05:24;;;;;;;7.25;5.78;;;7.50;99.90;;;;;;5053591;28;20096;-66
2022/11/23 00:07:50;;;;;;;12.65;7.50;;;7.50;99.90;;;;;;5035579;28;20052;-66
2022/11/23 00:10:16;;;;;;;7.97;6.07;;;7.50;99.90;;;;;;5053956;28;20051;-66
2022/11/23 00:12:42;;;;;;;8.50;6.07;;;7.50;99.90;;;;;;5053383;28;20501;-66
2022/11/23 00:15:09;;;;;;;9.95;6.05;;;7.50;99.90;;;;;;5053434;28;20059;-66
2022/11/23 00:17:34;;;;;;;8.50;5.82;;;7.50;99.90;;;;;;5053395;28;20048;-66
2022/11/23 00:20:00;;;;;;;7.65;5.90;;;7.50;99.90;;;;;;5052878;28;20099;-66
2022/11/23 00:22:25;;;;;;;9.50;6.25;;;7.50;99.90;;;;;;5053024;28;20052;-66
2022/11/23 00:24:51;;;;;;;7.93;6.50;;;7.50;99.90;;;;;;5053862;28;20053;-65
2022/11/23 00:27:17;;;;;;;10.35;6.35;;;7.50;99.90;;;;;;5053076;28;20052;-66
2022/11/23 00:29:42;;;;;;;9.50;6.15;;;7.50;99.90;;;;;;5053766;28;20056;-66
2022/11/23 00:32:08;;;;;;;8.25;6.25;;;7.50;99.90;;;;;;5053178;28;20171;-66
2022/11/23 00:34:34;;;;;;;7.93;5.80;;;7.50;99.90;;;;;;5053454;28;20041;-66
2022/11/23 00:36:59;;;;;;;9.70;6.15;;;7.60;99.90;;;;;;5053173;28;20045;-66
2022/11/23 00:39:25;;;;;;;9.85;5.50;;;7.60;99.90;;;;;;5053444;28;20051;-66
2022/11/23 00:41:51;;;;;;;7.30;5.93;;;7.60;99.90;;;;;;5053040;28;20045;-66
2022/11/23 00:44:16;;;;;;;10.60;5.60;;;7.70;99.90;;;;;;5053059;28;20056;-66
2022/11/23 00:46:42;;;;;;;9.10;6.05;;;7.60;99.90;;;;;;5052978;28;20048;-66
2022/11/23 00:49:08;;;;;;;7.43;5.38;;;7.60;99.90;;;;;;5052984;28;20103;-66
2022/11/23 00:51:35;;;;;;;6.80;5.80;;;7.60;99.90;;;;;;5053000;28;20391;-66
2022/11/23 00:54:04;;;;;;;7.85;5.72;;;7.60;99.90;;;;;;5052978;28;20049;-66
2022/11/23 00:56:30;;;;;;;8.13;5.97;;;7.60;99.90;;;;;;5052943;28;20120;-66
2022/11/23 00:58:57;;;;;;;8.95;5.63;;;7.60;99.90;;;;;;5052905;28;20088;-66
2022/11/23 01:01:25;;;;;;;9.93;6.00;;;7.60;99.90;;;;;;5052905;28;20037;-66
2022/11/23 01:03:57;;;;;;;7.30;5.13;;;7.60;99.90;;;;;;5052884;28;20060;-66
2022/11/23 01:06:28;;;;;;;7.15;5.75;;;7.60;99.90;;;;;;5052904;28;20382;-66
2022/11/23 01:09:03;;;;;;;8.98;5.80;;;7.70;99.90;;;;;;5035255;28;20079;-66
2022/11/23 01:11:31;;;;;;;7.10;5.57;;;7.70;99.90;;;;;;5052856;28;20041;-66
2022/11/23 01:13:57;;;;;;;8.95;5.78;;;7.60;99.90;;;;;;5052740;28;20045;-66
2022/11/23 01:16:28;;;;;;;7.82;5.57;;;7.70;99.90;;;;;;5053327;28;20371;-66
2022/11/23 01:18:56;;;;;;;7.47;5.65;;;7.70;99.90;;;;;;5053996;28;20049;-66
2022/11/23 01:21:23;;;;;;;9.57;6.38;;;7.70;99.90;;;;;;5057423;28;20392;-66
2022/11/23 01:23:49;;;;;;;6.65;5.43;;;7.70;99.90;;;;;;5056636;28;20052;-66
2022/11/23 01:26:14;;;;;;;8.43;6.05;;;7.70;99.90;;;;;;5056547;28;20056;-66
2022/11/23 01:28:41;;;;;;;9.45;5.85;;;7.70;99.90;;;;;;5056607;28;20120;-66
2022/11/23 01:31:09;;;;;;;7.63;5.85;;;7.70;99.90;;;;;;5038666;28;20052;-66
2022/11/23 01:33:36;;;;;;;7.55;5.47;;;7.70;99.90;;;;;;5056097;28;20417;-66
2022/11/23 01:36:24;;;;;;;7.45;5.47;;;7.70;99.90;;;;;;5023135;28;20052;-66
2022/11/23 01:38:50;;;;;;;6.72;5.55;;;7.80;99.90;;;;;;5056359;28;20051;-66
2022/11/23 01:41:18;;;;;;;7.00;5.63;;;7.70;99.90;;;;;;5056201;28;20124;-66
2022/11/23 01:43:44;;;;;;;8.95;6.10;;;7.70;99.90;;;;;;5056743;28;20045;-66
2022/11/23 01:46:11;;;;;;;7.38;6.07;;;7.70;99.90;;;;;;5039284;28;20045;-66
2022/11/23 01:48:56;;;;;;;8.32;6.30;;;7.70;99.90;;;;;;5056393;28;20053;-66
2022/11/23 01:51:33;;;;;;;9.48;6.32;;;7.70;99.90;;;;;;5056663;28;20049;-66
2022/11/23 01:54:09;;;;;;;8.07;6.50;;;7.70;99.90;;;;;;5056608;28;20045;-66
2022/11/23 01:56:45;;;;;;;7.50;6.00;;;7.70;99.90;;;;;;5056107;28;20121;-66
2022/11/23 01:59:15;;;;;;;7.30;5.88;;;7.70;99.90;;;;;;5056541;28;20106;-66
2022/11/23 02:01:42;;;;;;;8.38;6.05;;;7.80;99.90;;;;;;5056164;28;20132;-66
2022/11/23 02:04:12;;;;;;;10.18;6.00;;;7.70;99.90;;;;;;5038062;28;20045;-66
2022/11/23 02:06:39;;;;;;;7.60;5.90;;;7.80;99.90;;;;;;5056921;28;20044;-66
2022/11/23 02:09:06;;;;;;;7.40;5.70;;;7.70;99.90;;;;;;5055803;28;20436;-66
2022/11/23 02:11:32;;;;;;;8.20;5.78;;;7.80;99.90;;;;;;5056318;28;20362;-66
2022/11/23 02:13:59;;;;;;;7.60;6.50;;;7.80;99.90;;;;;;5055619;28;20138;-66
2022/11/23 02:16:25;;;;;;;12.52;6.85;;;7.80;99.90;;;;;;5055905;28;20045;-66
2022/11/23 02:18:52;;;;;;;6.90;5.47;;;7.80;99.90;;;;;;5056154;28;20496;-66
2022/11/23 02:21:18;;;;;;;8.15;5.90;;;7.70;99.90;;;;;;5055491;28;20041;-66
2022/11/23 02:24:11;;;;;;;8.77;6.25;;;7.80;99.90;;;;;;5055466;28;20216;-66
2022/11/23 02:26:37;;;;;;;8.45;6.28;;;7.80;99.90;;;;;;5055796;28;20151;-66
2022/11/23 02:29:23;;;;;;;7.53;5.72;;;7.80;99.90;;;;;;5056448;28;20132;-66
2022/11/23 02:31:49;;;;;;;8.27;5.72;;;7.80;99.90;;;;;;5036319;28;20076;-66
2022/11/23 02:34:16;;;;;;;7.90;5.78;;;7.80;99.90;;;;;;5056061;28;20128;-66
2022/11/23 02:36:48;;;;;;;9.20;6.22;;;7.90;99.90;;;;;;5038493;28;20394;-66
2022/11/23 02:39:23;;;;;;;6.93;5.72;;;7.80;99.90;;;;;;5055252;28;20048;-66
2022/11/23 02:41:51;;;;;;;8.52;5.82;;;7.80;99.90;;;;;;5055234;28;20049;-66
2022/11/23 02:44:25;;;;;;;8.63;5.93;;;7.90;99.90;;;;;;5055091;28;20135;-66
2022/11/23 02:46:52;;;;;;;9.57;6.05;;;7.90;99.90;;;;;;5055096;28;20086;-66
2022/11/23 02:49:18;;;;;;;8.77;6.07;;;7.90;99.90;;;;;;5055815;28;20120;-66
2022/11/23 02:51:43;;;;;;;8.10;5.82;;;7.90;99.90;;;;;;5055028;28;20536;-66
2022/11/23 02:54:09;;;;;;;9.88;5.95;;;7.90;99.90;;;;;;5054859;28;20037;-66
2022/11/23 02:56:35;;;;;;;7.28;5.60;;;7.90;99.90;;;;;;5055459;28;20045;-66
2022/11/23 02:59:00;;;;;;;7.82;5.00;;;7.90;99.90;;;;;;5054859;28;20505;-66
2022/11/23 03:01:27;;;;;;;9.00;5.95;;;7.90;99.90;;;;;;5055180;28;20048;-66
2022/11/23 03:03:52;;;;;;;10.95;5.30;;;7.90;99.90;;;;;;5054703;28;20041;-66
2022/11/23 03:06:18;;;;;;;8.15;5.32;;;7.90;99.90;;;;;;5055213;28;20091;-66
2022/11/23 03:08:44;;;;;;;7.70;5.13;;;7.90;99.90;;;;;;5036616;28;20102;-65
2022/11/23 03:11:09;;;;;;;6.70;4.80;;;7.90;99.90;;;;;;5054615;28;20128;-66
2022/11/23 03:13:35;;;;;;;7.38;5.32;;;7.90;99.90;;;;;;5054515;28;20068;-66
2022/11/23 03:16:01;;;;;;;8.02;5.05;;;7.90;99.90;;;;;;5055077;28;20045;-66
2022/11/23 03:18:26;;;;;;;6.72;4.68;;;7.90;99.90;;;;;;5054989;28;20056;-66
2022/11/23 03:20:52;;;;;;;7.43;5.28;;;8.00;99.90;;;;;;5055167;28;20048;-66
2022/11/23 03:23:17;;;;;;;6.40;4.93;;;8.00;99.90;;;;;;5054376;28;20044;-65
2022/11/23 03:25:43;;;;;;;6.38;4.78;;;8.00;99.90;;;;;;5054329;28;20128;-66
2022/11/23 03:28:09;;;;;;;7.47;5.00;;;8.00;99.90;;;;;;5054516;28;20060;-66
2022/11/23 03:30:35;;;;;;;5.68;4.53;;;8.00;99.90;;;;;;5054236;28;20041;-66
2022/11/23 03:33:00;;;;;;;7.40;5.15;;;8.00;99.90;;;;;;5054914;28;20044;-66
2022/11/23 03:35:26;;;;;;;6.90;5.20;;;7.90;99.90;;;;;;5054159;28;20482;-66
2022/11/23 03:37:51;;;;;;;8.13;5.50;;;8.00;99.90;;;;;;5054054;28;20052;-66
2022/11/23 03:40:17;;;;;;;6.90;4.70;;;8.00;99.90;;;;;;5054001;28;20040;-65
2022/11/23 03:42:43;;;;;;;7.05;5.28;;;8.00;99.90;;;;;;5054006;28;20045;-65
2022/11/23 03:45:09;;;;;;;7.15;5.00;;;8.00;99.90;;;;;;5054765;28;20064;-65
2022/11/23 03:47:35;;;;;;;8.07;6.18;;;8.00;99.90;;;;;;5053916;28;20405;-66
2022/11/23 03:50:01;;;;;;;7.90;5.43;;;8.00;99.90;;;;;;5036307;28;20056;-66
2022/11/23 03:52:27;;;;;;;8.38;5.10;;;8.00;99.90;;;;;;5036099;28;20535;-66
2022/11/23 03:54:52;;;;;;;7.30;5.03;;;8.10;99.90;;;;;;5036890;28;20397;-66
2022/11/23 03:57:18;;;;;;;8.50;5.60;;;8.60;99.90;;;;;;5054258;28;20450;-66
2022/11/23 03:59:44;;;;;;;9.18;5.80;;;8.10;99.90;;;;;;5054129;28;20063;-66
2022/11/23 04:02:09;;;;;;;7.72;5.40;;;8.10;99.90;;;;;;5054225;28;20113;-66
2022/11/23 04:04:35;;;;;;;9.18;5.47;;;8.50;99.90;;;;;;5054380;28;20358;-66
2022/11/23 04:07:01;;;;;;;9.10;5.97;;;8.20;99.90;;;;;;5053566;28;20041;-65
2022/11/23 04:09:26;;;;;;;8.93;5.60;;;8.20;99.90;;;;;;5053531;28;20137;-66
2022/11/23 04:11:52;;;;;;;8.43;5.80;;;8.20;99.90;;;;;;5053229;28;20037;-66
2022/11/23 04:14:18;;;;;;;8.95;6.30;;;8.20;99.90;;;;;;5053503;28;20051;-66
2022/11/23 04:16:43;;;;;;;8.75;6.40;;;8.20;99.90;;;;;;5053707;28;20439;-66
2022/11/23 04:19:09;;;;;;;10.30;5.63;;;8.20;99.90;;;;;;5053914;28;20048;-66
2022/11/23 04:21:35;;;;;;;8.48;5.10;;;8.20;99.90;;;;;;5053223;28;20052;-66
2022/11/23 04:24:00;;;;;;;8.07;5.50;;;8.20;99.90;;;;;;5053240;28;20045;-66
2022/11/23 04:26:26;;;;;;;9.18;6.30;;;8.20;99.90;;;;;;5053329;28;20048;-66
2022/11/23 04:28:52;;;;;;;9.35;5.47;;;8.10;99.90;;;;;;5053741;28;20493;-65
2022/11/23 04:31:17;;;;;;;9.45;5.97;;;8.20;99.90;;;;;;5053672;28;20041;-66
2022/11/23 04:33:43;;;;;;;11.70;6.40;;;8.20;99.90;;;;;;5053245;28;20083;-65
2022/11/23 04:36:09;;;;;;;11.32;6.03;;;8.20;99.90;;;;;;5053201;28;20049;-65
2022/11/23 04:38:34;;;;;;;10.52;6.22;;;8.30;99.90;;;;;;5053150;28;20450;-65
2022/11/23 04:41:00;;;;;;;10.70;5.50;;;8.20;99.90;;;;;;5036008;28;20056;-66
2022/11/23 04:43:26;;;;;;;9.48;5.60;;;8.20;99.90;;;;;;5053125;28;20084;-65
2022/11/23 04:45:51;;;;;;;12.32;6.03;;;8.20;99.90;;;;;;5035965;28;20466;-66
2022/11/23 04:48:17;;;;;;;9.45;5.75;;;8.20;99.90;;;;;;5053000;28;20398;-66
2022/11/23 04:50:43;;;;;;;8.57;5.75;;;8.20;99.90;;;;;;5053013;28;20455;-66
2022/11/23 04:53:08;;;;;;;10.32;5.50;;;8.20;99.90;;;;;;5052955;28;20041;-66
2022/11/23 04:55:34;;;;;;;9.50;6.82;;;8.20;99.90;;;;;;5056583;28;20080;-66
2022/11/23 04:58:00;;;;;;;9.95;5.60;;;8.20;99.90;;;;;;5057105;28;20053;-66
2022/11/23 05:00:26;;;;;;;9.30;6.15;;;8.20;99.90;;;;;;5057146;28;20128;-66
2022/11/23 05:02:52;;;;;;;9.52;4.80;;;8.20;99.90;;;;;;5040055;28;20366;-66
2022/11/23 05:05:17;;;;;;;10.05;5.65;;;8.20;99.90;;;;;;5039748;28;20045;-65
2022/11/23 05:07:43;;;;;;;7.50;5.60;;;8.20;99.90;;;;;;5057157;28;20492;-66
2022/11/23 05:10:09;;;;;;;10.30;5.78;;;8.20;99.90;;;;;;5056960;28;20106;-65
2022/11/23 05:12:35;;;;;;;9.50;5.13;;;8.20;99.90;;;;;;5039253;28;20079;-66
2022/11/23 05:15:02;;;;;;;9.10;5.70;;;8.20;99.90;;;;;;5057335;28;20084;-66
2022/11/23 05:17:28;;;;;;;11.15;6.00;;;8.30;99.90;;;;;;5056729;28;20524;-66
2022/11/23 05:19:55;;;;;;;11.80;6.20;;;8.30;99.90;;;;;;5056682;28;20146;-65
2022/11/23 05:22:20;;;;;;;9.70;5.20;;;8.30;99.90;;;;;;5056758;28;20118;-65
2022/11/23 05:24:46;;;;;;;10.15;5.25;;;8.30;99.90;;;;;;5056290;28;20048;-66
2022/11/23 05:27:12;;;;;;;11.52;5.65;;;8.30;99.90;;;;;;5056356;28;20048;-66
2022/11/23 05:29:38;;;;;;;9.55;5.22;;;8.20;99.90;;;;;;5039769;28;20116;-66
2022/11/23 05:32:04;;;;;;;9.50;5.07;;;8.20;99.90;;;;;;5056491;28;20111;-65
2022/11/23 05:34:29;;;;;;;8.77;4.82;;;8.20;99.90;;;;;;5056723;28;20049;-66
2022/11/23 05:36:55;;;;;;;8.60;4.97;;;8.20;99.90;;;;;;5056645;28;20623;-66
2022/11/23 05:39:21;;;;;;;9.13;4.68;;;8.20;99.90;;;;;;5056530;28;20481;-65
2022/11/23 05:41:47;;;;;;;7.80;4.53;;;8.50;99.90;;;;;;5056268;28;20053;-65
2022/11/23 05:44:13;;;;;;;9.10;4.82;;;8.20;99.90;;;;;;5056259;28;20040;-66
2022/11/23 05:46:38;;;;;;;7.32;4.55;;;8.20;99.90;;;;;;5056929;28;20052;-65
2022/11/23 05:49:04;;;;;;;9.32;4.70;;;8.20;99.90;;;;;;5038597;28;20044;-66
2022/11/23 05:51:31;;;;;;;8.50;4.90;;;8.20;99.90;;;;;;5056102;28;20123;-65
2022/11/23 05:53:57;;;;;;;6.50;4.32;;;8.20;99.90;;;;;;5056255;28;20045;-65
2022/11/23 05:56:23;;;;;;;7.85;4.40;;;8.20;99.90;;;;;;5056054;28;20055;-66
2022/11/23 05:58:48;;;;;;;7.32;3.88;;;8.10;99.90;;;;;;5055984;28;20045;-65
2022/11/23 06:01:14;;;;;;;7.88;3.88;;;8.10;99.90;;;;;;5056606;28;20059;-65
2022/11/23 06:03:40;;;;;;;6.65;3.85;;;8.10;99.90;;;;;;5055616;28;20409;-65
2022/11/23 06:06:05;;;;;;;7.38;3.63;;;8.20;99.90;;;;;;5056068;28;20059;-65
2022/11/23 06:08:31;;;;;;;7.05;3.92;;;8.00;99.90;;;;;;5055751;28;20131;-65
2022/11/23 06:11:00;;;;;;;6.60;3.60;;;8.00;99.90;;;;;;5055738;28;20036;-65
2022/11/23 06:13:26;;;;;;;9.00;3.75;;;8.00;99.90;;;;;;5055685;28;20041;-65
2022/11/23 06:15:51;;;;;;;6.90;3.30;;;8.00;99.90;;;;;;5055547;28;20047;-65
2022/11/23 06:18:17;;;;;;;4.60;3.13;;;7.90;99.90;;;;;;5056122;28;20131;-65
2022/11/23 06:20:42;;;;;;;5.45;2.75;;;8.00;99.90;;;;;;5055902;28;20037;-65
2022/11/23 06:23:08;;;;;;;6.50;3.38;;;7.90;99.90;;;;;;5055817;28;20060;-65
2022/11/23 06:25:34;;;;;;;6.30;2.88;;;7.80;99.90;;;;;;5055510;28;20052;-65
2022/11/23 06:28:00;;;;;;;6.05;2.70;;;7.80;99.90;;;;;;5055512;28;20063;-65
2022/11/23 06:30:27;;;;;;;8.10;3.30;;;7.70;99.90;;;;;;5037533;28;20041;-65
2022/11/23 06:32:53;;;;;;;6.80;3.15;;;7.70;99.90;;;;;;5055351;28;20110;-65
2022/11/23 06:35:19;;;;;;;7.25;3.35;;;7.70;99.90;;;;;;5055262;28;20096;-65
2022/11/23 06:37:47;;;;;;;4.40;3.10;;;7.90;99.90;;;;;;5037399;28;20498;-65
2022/11/23 06:40:13;;;;;;;8.65;2.92;;;7.60;99.90;;;;;;5055845;28;20048;-65
2022/11/23 06:42:39;;;;;;;5.65;3.00;;;7.50;99.90;;;;;;5055060;28;20048;-65
2022/11/23 06:45:05;;;;;;;8.05;2.70;;;7.50;99.90;;;;;;5055121;28;20138;-65
2022/11/23 06:47:31;;;;;;;7.57;2.80;;;7.40;99.90;;;;;;5037395;28;20080;-66
2022/11/23 06:49:56;;;;;;;4.82;2.90;;;7.40;99.90;;;;;;5055036;28;20153;-66
2022/11/23 06:52:22;;;;;;;5.50;2.80;;;7.40;99.90;;;;;;5054863;28;20047;-66
2022/11/23 06:54:48;;;;;;;8.48;3.17;;;7.40;99.90;;;;;;5054999;28;20084;-65
2022/11/23 06:57:13;;;;;;;8.18;3.05;;;7.40;99.90;;;;;;5037370;28;20052;-65
2022/11/23 06:59:39;;;;;;;7.07;3.35;;;7.30;99.90;;;;;;5054754;28;20520;-65
2022/11/23 07:02:05;;;;;;;6.90;3.30;;;7.40;99.90;;;;;;5054864;28;20094;-65
2022/11/23 07:04:31;;;;;;;6.47;2.92;;;7.30;99.90;;;;;;5055017;28;20049;-65
2022/11/23 07:06:56;;;;;;;8.75;3.20;;;7.30;99.90;;;;;;5055454;28;20577;-65
2022/11/23 07:09:22;;;;;;;4.28;2.38;;;7.30;99.90;;;;;;5054998;28;20041;-65
2022/11/23 07:11:48;;;;;;;7.55;3.38;;;7.30;99.90;;;;;;5054305;28;20452;-65
2022/11/23 07:14:14;;;;;;;5.78;3.50;;;7.30;99.90;;;;;;5053546;28;20049;-70
2022/11/23 07:16:39;;;;;;;8.95;3.45;;;7.30;99.90;;;;;;5019182;28;20052;-62
2022/11/23 07:19:05;;;;;;;10.65;3.20;;;7.30;99.90;;;;;;5054395;28;20059;-62
2022/11/23 07:21:31;;;;;;;7.85;3.15;;;7.30;99.90;;;;;;5054365;28;20120;-62
2022/11/23 07:23:56;;;;;;;7.93;2.70;;;7.30;99.90;;;;;;5054356;28;20051;-62
2022/11/23 07:26:22;;;;;;;7.85;2.42;;;7.30;99.90;;;;;;5054095;28;20045;-62
2022/11/23 07:28:47;;;;;;;7.13;3.22;;;7.70;99.90;;;;;;5054007;28;20049;-62
2022/11/23 07:31:14;;;;;;;8.20;3.00;;;7.20;99.90;;;;;;5054097;28;20041;-62
2022/11/23 07:33:44;;;;;;;7.60;3.08;;;7.30;99.90;;;;;;5036396;28;20081;-62
2022/11/23 07:36:11;;;;;;;8.27;3.15;;;7.30;99.90;;;;;;5054339;28;20047;-62
2022/11/23 07:38:36;;;;;;;6.43;2.88;;;7.30;99.90;;;;;;5054495;28;20123;-62
2022/11/23 07:41:02;;;;;;;6.32;3.00;;;7.40;99.90;;;;;;5054306;28;20611;-62
2022/11/23 07:43:29;;;;;;;7.10;3.00;;;7.40;99.90;;;;;;5053987;28;20053;-62
2022/11/23 07:45:55;;;;;;;5.55;3.10;;;7.40;99.90;;;;;;5054023;28;20107;-62
2022/11/23 07:48:22;;;;;;;7.68;2.63;;;7.50;99.90;;;;;;5036235;28;20048;-62
2022/11/23 07:50:47;;;;;;;6.82;3.17;;;7.50;99.90;;;;;;5036589;28;20119;-62
2022/11/23 07:53:13;;;;;;;6.07;2.50;;;7.60;99.90;;;;;;5053783;28;20084;-62
2022/11/23 07:55:38;;;;;;;6.07;2.88;;;7.60;99.90;;;;;;5054528;28;20128;-62
2022/11/23 07:58:05;;;;;;;5.43;3.33;;;7.60;99.90;;;;;;5053759;28;20553;-62
2022/11/23 08:00:31;;;;;;;7.80;3.30;;;7.70;99.90;;;;;;5053618;28;20048;-62
2022/11/23 08:02:57;;;;;;;8.35;2.78;;;7.70;99.90;;;;;;5053585;28;20049;-62
2022/11/23 08:05:25;;;;;;;6.68;2.95;;;7.70;99.90;;;;;;5053295;28;20076;-62
2022/11/23 08:07:51;;;;;;;6.10;2.75;;;8.00;99.90;;;;;;5053594;28;20371;-62
2022/11/23 08:10:16;;;;;;;5.63;2.72;;;7.80;99.90;;;;;;5053559;28;20123;-62
2022/11/23 08:12:42;;;;;;;6.75;2.90;;;7.80;99.90;;;;;;5053514;28;20033;-62
2022/11/23 08:15:08;;;;;;;7.45;3.30;;;7.90;99.90;;;;;;5053468;28;20067;-62
2022/11/23 08:17:33;;;;;;;6.50;2.85;;;7.90;99.90;;;;;;5053533;28;20045;-62
2022/11/23 08:19:59;;;;;;;6.70;3.00;;;7.90;99.90;;;;;;5053371;28;20037;-62
2022/11/23 08:22:26;;;;;;;6.32;3.17;;;7.90;99.90;;;;;;5053413;28;20037;-69
2022/11/23 08:24:51;;;;;;;6.90;2.72;;;8.00;99.90;;;;;;5034928;28;20522;-68
2022/11/23 08:27:17;;;;;;;7.35;3.25;;;8.10;99.90;;;;;;5052980;28;20049;-79
2022/11/23 08:29:43;;;;;;;7.65;3.33;;;8.00;99.90;;;;;;5036353;28;20045;-71
2022/11/23 08:32:10;;;;;;;4.28;2.60;;;8.10;99.90;;;;;;5053607;28;20032;-71
2022/11/23 08:34:35;;;;;;;8.80;3.00;;;8.20;99.90;;;;;;5053409;28;20044;-71
2022/11/23 08:37:01;;;;;;;6.53;2.88;;;8.20;99.90;;;;;;5053083;28;20512;-71
2022/11/23 08:39:26;;;;;;;7.07;2.65;;;8.20;99.90;;;;;;5053839;28;20067;-71
2022/11/23 08:41:52;;;;;;;7.93;2.95;;;8.20;99.90;;;;;;5035285;28;20171;-71
2022/11/23 08:44:18;;;;;;;4.68;2.85;;;8.20;99.90;;;;;;5052799;28;20111;-71
2022/11/23 08:46:43;;;;;;;8.52;3.30;;;8.30;99.90;;;;;;5053157;28;20051;-71
2022/11/23 08:49:09;;;;;;;5.28;2.92;;;8.30;99.90;;;;;;5053075;28;20381;-71
2022/11/23 08:51:35;;;;;;;5.78;2.70;;;8.30;99.90;;;;;;5019776;28;20448;-71
2022/11/23 08:54:00;;;;;;;7.75;2.67;;;8.30;99.90;;;;;;5053212;28;20043;-71
2022/11/23 08:56:26;;;;;;;6.57;2.70;;;8.40;99.90;;;;;;5053130;28;20457;-71
2022/11/23 08:58:52;;;;;;;7.25;2.63;;;8.40;99.90;;;;;;5053831;28;20438;-72
2022/11/23 09:01:17;;;;;;;6.68;2.80;;;8.40;99.90;;;;;;5052837;28;20040;-71
2022/11/23 09:03:44;;;;;;;8.23;3.40;;;8.50;99.90;;;;;;5052944;28;20392;-72
2022/11/23 09:06:10;;;;;;;7.32;2.50;;;8.50;99.90;;;;;;5053003;28;20037;-71
2022/11/23 09:08:36;;;;;;;5.85;3.03;;;8.30;99.90;;;;;;5052892;28;20045;-70
2022/11/23 09:11:05;;;;;;;5.43;2.75;;;9.10;99.90;;;;;;5052589;28;20481;-71
2022/11/23 09:13:31;;;;;;;5.75;2.30;;;8.70;99.90;;;;;;5052821;28;20051;-70
2022/11/23 09:16:01;;;;;;;8.73;2.50;;;8.70;99.90;;;;;;5035312;28;20041;-70
2022/11/23 09:18:29;;;;;;;5.95;2.67;;;8.80;99.90;;;;;;5052798;28;20087;-69
2022/11/23 09:20:55;;;;;;;4.43;2.13;;;8.80;99.90;;;;;;5035249;28;20049;-69
2022/11/23 09:23:21;;;;;;;9.60;2.70;;;8.80;99.90;;;;;;5052630;28;20120;-69
2022/11/23 09:25:48;;;;;;;9.00;2.60;;;8.80;99.90;;;;;;5052688;28;20044;-68
2022/11/23 09:28:18;;;;;;;6.55;2.63;;;8.70;99.90;;;;;;5034914;28;20389;-68
2022/11/23 09:30:45;;;;;;;7.50;2.33;;;8.70;99.90;;;;;;5052636;28;20037;-68
2022/11/23 09:33:11;;;;;;;5.90;2.28;;;8.70;99.90;;;;;;5053226;28;20355;-68
2022/11/23 09:35:37;;;;;;;6.47;2.30;;;8.70;99.90;;;;;;5052595;28;20102;-74
2022/11/23 09:38:02;;;;;;;4.85;2.15;;;8.70;99.90;;;;;;5052670;28;20049;-70
2022/11/23 09:40:35;;;;;;;7.97;2.40;;;8.70;99.90;;;;;;5054633;28;20040;-67
2022/11/23 09:43:38;;;;;;;6.57;2.20;;;8.70;99.90;;;;;;5056267;28;20044;-70
2022/11/23 09:46:20;;;;;;;6.85;2.38;;;8.70;99.90;;;;;;5056285;28;20469;-71
2022/11/23 09:49:08;;;;;;;5.68;2.10;;;8.70;99.90;;;;;;5056239;28;20045;-71
2022/11/23 09:51:37;;;;;;;4.97;2.17;;;8.70;99.90;;;;;;5038891;28;20045;-71
2022/11/23 09:54:10;;;;;;;7.07;1.98;;;8.70;99.90;;;;;;5038417;28;20123;-71
2022/11/23 09:56:38;;;;;;;5.75;2.40;;;8.70;99.90;;;;;;5039343;28;20049;-72
2022/11/23 09:59:34;;;;;;;5.35;2.17;;;8.70;99.90;;;;;;5056058;28;20080;-71
2022/11/23 10:02:00;;;;;;;4.60;2.37;;;8.70;99.90;;;;;;5056298;28;20438;-71
2022/11/23 10:04:32;;;;;;;5.82;2.22;;;8.70;99.90;;;;;;5038069;28;20124;-71
2022/11/23 10:07:19;;;;;;;5.47;2.40;;;8.90;99.90;;;;;;5056731;28;20048;-71
2022/11/23 10:10:04;;;;;;;9.50;2.58;;;8.70;99.90;;;;;;5056413;28;20091;-72
2022/11/23 10:12:47;;;;;;;4.85;2.00;;;8.70;99.90;;;;;;5056065;28;20469;-71
2022/11/23 10:15:52;;;;;;;5.10;2.13;;;8.70;99.90;;;;;;5056321;28;20041;-72
2022/11/23 10:18:31;;;;;;;4.28;1.60;;;8.70;99.90;;;;;;5030350;28;20060;-71
2022/11/23 10:21:11;;;;;;;7.47;2.58;;;8.70;99.90;;;;;;5055615;28;20043;-70
2022/11/23 10:24:03;;;;;;;5.10;1.60;;;8.70;99.90;;;;;;5056267;28;20134;-71
2022/11/23 10:26:36;;;;;;;5.47;1.90;;;8.70;99.90;;;;;;5021715;28;20044;-70
2022/11/23 10:29:12;;;;;;;9.90;2.40;;;8.70;99.90;;;;;;5055414;28;20056;-71
2022/11/23 10:31:39;;;;;;;;;;;8.70;99.90;;;;;;5056440;28;20041;-70
2022/11/23 10:34:11;;;;;;;7.82;1.83;;;8.80;99.90;;;;;;5056060;28;20230;-70
2022/11/23 10:36:38;;;;;;;5.47;1.92;;;8.70;99.90;;;;;;5055386;28;20099;-71
2022/11/23 10:39:22;;;;;;;4.35;1.80;;;8.80;99.90;;;;;;5055301;28;20045;-70
2022/11/23 10:41:49;;;;;;;7.05;2.28;;;8.80;99.90;;;;;;5055191;28;20473;-70
2022/11/23 10:44:36;;;;;;;6.40;1.90;;;8.80;99.90;;;;;;5055163;28;20499;-70
2022/11/23 10:47:03;;;;;;;5.40;2.67;;;8.80;99.90;;;;;;5037799;28;20155;-69
2022/11/23 10:49:32;;;;;;;6.50;1.90;;;8.80;99.90;;;;;;5055253;28;20048;-70
2022/11/23 10:52:07;;;;;;;4.88;1.60;;;8.80;99.90;;;;;;5053739;28;20049;-69
2022/11/23 10:54:32;;;;;;;8.10;1.90;;;8.90;99.90;;;;;;5055588;28;20413;-71
2022/11/23 10:57:00;;;;;;;4.55;1.75;;;9.00;99.90;;;;;;5037528;28;20052;-71
2022/11/23 10:59:27;;;;;;;5.13;1.50;;;9.10;99.90;;;;;;5055313;28;20049;-71
2022/11/23 11:02:01;;;;;;;5.47;1.30;;;9.20;99.90;;;;;;5054907;28;20040;-69
2022/11/23 11:04:27;;;;;;;7.88;1.83;;;9.40;99.90;;;;;;5054697;28;20102;-69
2022/11/23 11:07:11;;;;;;;4.30;1.50;;;9.60;99.90;;;;;;5054635;28;20049;-70
2022/11/23 11:09:37;;;;;;;5.88;1.75;;;9.70;99.90;;;;;;5054728;28;20064;-69
2022/11/23 11:12:03;;;;;;;5.10;1.50;;;9.60;99.90;;;;;;5054588;28;20127;-69
2022/11/23 11:14:29;;;;;;;8.32;1.65;;;9.60;99.90;;;;;;5054634;28;20084;-69
2022/11/23 11:16:59;;;;;;;6.32;2.15;;;9.50;99.90;;;;;;5054482;28;20136;-69
2022/11/23 11:19:35;;;;;;;7.63;1.58;;;9.50;99.90;;;;;;5055048;28;20048;-69
2022/11/23 11:22:24;;;;;;;6.68;2.20;;;9.50;99.90;;;;;;5055156;28;20114;-70
2022/11/23 11:24:50;;;;;;;5.28;2.45;;;9.50;99.90;;;;;;5054207;28;20045;-70
2022/11/23 11:27:21;;;;;;;6.88;1.63;;;9.60;99.90;;;;;;5036372;28;20041;-70
2022/11/23 11:29:49;;;;;;;8.07;1.80;;;9.60;99.90;;;;;;5036796;28;20120;-71
2022/11/23 11:32:32;;;;;;;3.55;1.40;;;9.70;99.90;;;;;;5054139;28;20444;-70
2022/11/23 11:35:15;;;;;;;4.13;1.50;;;9.70;99.90;;;;;;5054152;28;20041;-70
2022/11/23 11:37:46;;;;;;;6.95;1.67;;;9.70;99.90;;;;;;5054886;28;20123;-69
2022/11/23 11:40:24;;;;;;;5.75;1.50;;;9.80;99.90;;;;;;5053741;28;20045;-70
2022/11/23 11:43:03;;;;;;;4.82;1.35;;;9.90;99.90;;;;;;5037007;28;20111;-70
2022/11/23 11:45:35;;;;;;;7.65;1.50;;;10.00;99.90;;;;;;5055009;28;20067;-70
2022/11/23 11:48:09;;;;;;;5.38;1.50;;;10.00;99.90;;;;;;5054456;28;20056;-70
2022/11/23 11:50:46;;;;;;;6.90;2.55;;;10.00;99.90;;;;;;5054198;28;20064;-70
2022/11/23 11:53:17;;;;;;;5.32;1.67;;;10.10;99.90;;;;;;5054530;28;20077;-70
2022/11/23 11:55:53;;;;;;;5.05;1.60;;;10.10;99.90;;;;;;5036491;28;20482;-70
2022/11/23 11:58:22;;;;;;;7.68;1.65;;;10.10;99.90;;;;;;5053816;28;20045;-70
2022/11/23 12:00:52;;;;;;;6.03;1.55;;;10.10;99.90;;;;;;5053593;28;20041;-70
2022/11/23 12:03:36;;;;;;;3.50;1.38;;;10.10;99.90;;;;;;5053927;28;20044;-70
2022/11/23 12:06:17;;;;;;;5.70;1.80;;;10.10;99.90;;;;;;5053695;28;20135;-70
2022/11/23 12:08:54;;;;;;;6.97;1.48;;;10.10;99.90;;;;;;5035961;28;20175;-70
2022/11/23 12:11:21;;;;;;;4.97;1.80;;;10.10;99.90;;;;;;5054037;28;20085;-70
2022/11/23 12:13:48;;;;;;;4.47;1.20;;;10.30;99.90;;;;;;5036533;28;20049;-70
2022/11/23 12:16:28;;;;;;;5.35;1.70;;;9.90;99.90;;;;;;5035839;28;20394;-71
2022/11/23 12:19:12;;;;;;;5.53;1.60;;;10.20;99.90;;;;;;5053122;28;20498;-70
2022/11/23 12:22:03;;;;;;;5.15;1.38;;;10.20;99.90;;;;;;5053329;28;20056;-70
2022/11/23 12:24:41;;;;;;;3.70;1.38;;;10.20;99.90;;;;;;5036309;28;20069;-70
2022/11/23 12:27:18;;;;;;;4.75;1.55;;;10.20;99.90;;;;;;5053208;28;20174;-70
2022/11/23 12:30:29;;;;;;;3.38;1.33;;;10.20;99.90;;;;;;5053807;28;20453;-70
2022/11/23 12:33:17;;;;;;;3.58;1.13;;;10.30;99.90;;;;;;5049465;28;20094;-70
2022/11/23 12:35:48;;;;;;;5.78;1.15;;;10.40;99.90;;;;;;5052962;28;20102;-70
2022/11/23 12:38:30;;;;;;;5.07;1.27;;;10.40;99.90;;;;;;5053037;28;20083;-70
2022/11/23 12:41:05;;;;;;;6.50;1.45;;;10.40;99.90;;;;;;5052869;28;20048;-70
2022/11/23 12:43:50;;;;;;;4.15;1.20;;;10.40;99.90;;;;;;5053070;28;20045;-70
2022/11/23 12:46:31;;;;;;;4.63;1.38;;;10.40;99.90;;;;;;5053021;28;20095;-69
2022/11/23 12:49:34;;;;;;;4.57;2.38;;;10.40;99.90;;;;;;5052928;28;20052;-69
2022/11/23 12:52:03;;;;;;;5.50;1.48;;;10.50;99.90;;;;;;5053190;28;20080;-70
2022/11/23 12:54:59;;;;;;;5.40;1.27;;;10.50;99.90;;;;;;5053492;28;20090;-70
2022/11/23 12:57:39;;;;;;;3.75;1.08;;;10.50;99.90;;;;;;5053800;28;20045;-69
2022/11/23 13:00:11;;;;;;;5.55;1.40;;;10.40;99.90;;;;;;5053601;28;20374;-70
2022/11/23 13:03:06;;;;;;;3.88;1.00;;;10.50;99.90;;;;;;5052942;28;20151;-73
2022/11/23 13:06:03;;;;;;;3.33;0.90;;;10.50;99.90;;;;;;5052980;28;20053;-70